sensor_id;sensor_type;location;lat;lon;timestamp;P1;durP1;ratioP1;P2;durP2;ratioP2
68310;SDS011;55157;51.036;17.058;2023-07-28T00:01:57;7.90;;;2.33;;
68310;SDS011;55157;51.036;17.058;2023-07-28T00:04:22;7.78;;;2.67;;
68310;SDS011;55157;51.036;17.058;2023-07-28T00:06:47;3.10;;;2.13;;
68310;SDS011;55157;51.036;17.058;2023-07-28T00:09:13;3.15;;;1.88;;
68310;SDS011;55157;51.036;17.058;2023-07-28T00:11:38;2.95;;;1.80;;
68310;SDS011;55157;51.036;17.058;2023-07-28T00:14:05;5.90;;;1.90;;
68310;SDS011;55157;51.036;17.058;2023-07-28T00:16:30;4.40;;;2.13;;
68310;SDS011;55157;51.036;17.058;2023-07-28T00:18:55;4.97;;;3.70;;
68310;SDS011;55157;51.036;17.058;2023-07-28T00:21:20;5.20;;;1.77;;
68310;SDS011;55157;51.036;17.058;2023-07-28T00:23:45;3.78;;;1.95;;
68310;SDS011;55157;51.036;17.058;2023-07-28T00:26:11;3.38;;;1.92;;
68310;SDS011;55157;51.036;17.058;2023-07-28T00:28:36;4.03;;;1.90;;
68310;SDS011;55157;51.036;17.058;2023-07-28T00:31:03;4.63;;;1.80;;
68310;SDS011;55157;51.036;17.058;2023-07-28T00:33:28;3.13;;;1.70;;
68310;SDS011;55157;51.036;17.058;2023-07-28T00:35:53;8.15;;;2.17;;
68310;SDS011;55157;51.036;17.058;2023-07-28T00:38:18;2.15;;;1.92;;
68310;SDS011;55157;51.036;17.058;2023-07-28T00:40:44;6.72;;;1.70;;
68310;SDS011;55157;51.036;17.058;2023-07-28T00:43:09;3.03;;;1.95;;
68310;SDS011;55157;51.036;17.058;2023-07-28T00:45:35;5.15;;;1.95;;
68310;SDS011;55157;51.036;17.058;2023-07-28T00:48:02;5.22;;;2.60;;
68310;SDS011;55157;51.036;17.058;2023-07-28T00:50:27;5.00;;;1.90;;
68310;SDS011;55157;51.036;17.058;2023-07-28T00:52:53;4.78;;;1.90;;
68310;SDS011;55157;51.036;17.058;2023-07-28T00:55:19;4.45;;;2.25;;
68310;SDS011;55157;51.036;17.058;2023-07-28T00:57:44;7.28;;;2.65;;
68310;SDS011;55157;51.036;17.058;2023-07-28T01:00:10;8.13;;;2.42;;
68310;SDS011;55157;51.036;17.058;2023-07-28T01:02:35;4.90;;;2.30;;
68310;SDS011;55157;51.036;17.058;2023-07-28T01:05:02;6.97;;;2.63;;
68310;SDS011;55157;51.036;17.058;2023-07-28T01:07:30;5.97;;;2.72;;
68310;SDS011;55157;51.036;17.058;2023-07-28T01:10:00;8.75;;;2.60;;
68310;SDS011;55157;51.036;17.058;2023-07-28T01:12:26;4.97;;;2.95;;
68310;SDS011;55157;51.036;17.058;2023-07-28T01:14:52;5.68;;;2.95;;
68310;SDS011;55157;51.036;17.058;2023-07-28T01:17:17;5.72;;;2.70;;
68310;SDS011;55157;51.036;17.058;2023-07-28T01:19:42;6.20;;;3.35;;
68310;SDS011;55157;51.036;17.058;2023-07-28T01:22:16;4.15;;;3.08;;
68310;SDS011;55157;51.036;17.058;2023-07-28T01:24:49;3.50;;;3.20;;
68310;SDS011;55157;51.036;17.058;2023-07-28T01:27:17;3.80;;;3.20;;
68310;SDS011;55157;51.036;17.058;2023-07-28T01:29:43;5.40;;;2.72;;
68310;SDS011;55157;51.036;17.058;2023-07-28T01:32:10;4.75;;;3.03;;
68310;SDS011;55157;51.036;17.058;2023-07-28T01:34:35;3.75;;;2.80;;
68310;SDS011;55157;51.036;17.058;2023-07-28T01:37:00;5.82;;;2.95;;
68310;SDS011;55157;51.036;17.058;2023-07-28T01:39:25;5.55;;;3.20;;
68310;SDS011;55157;51.036;17.058;2023-07-28T01:41:51;5.05;;;3.70;;
68310;SDS011;55157;51.036;17.058;2023-07-28T01:44:18;6.88;;;3.72;;
68310;SDS011;55157;51.036;17.058;2023-07-28T01:46:43;7.13;;;2.92;;
68310;SDS011;55157;51.036;17.058;2023-07-28T01:49:08;5.32;;;3.42;;
68310;SDS011;55157;51.036;17.058;2023-07-28T01:51:33;4.80;;;2.90;;
68310;SDS011;55157;51.036;17.058;2023-07-28T01:53:58;7.22;;;2.72;;
68310;SDS011;55157;51.036;17.058;2023-07-28T01:56:24;7.57;;;3.20;;
68310;SDS011;55157;51.036;17.058;2023-07-28T01:58:49;4.55;;;2.90;;
68310;SDS011;55157;51.036;17.058;2023-07-28T02:01:16;7.15;;;3.20;;
68310;SDS011;55157;51.036;17.058;2023-07-28T02:03:41;8.32;;;2.97;;
68310;SDS011;55157;51.036;17.058;2023-07-28T02:06:06;7.43;;;3.22;;
68310;SDS011;55157;51.036;17.058;2023-07-28T02:08:31;4.35;;;2.55;;
68310;SDS011;55157;51.036;17.058;2023-07-28T02:10:57;6.00;;;3.00;;
68310;SDS011;55157;51.036;17.058;2023-07-28T02:13:22;5.35;;;2.97;;
68310;SDS011;55157;51.036;17.058;2023-07-28T02:15:47;3.58;;;2.63;;
68310;SDS011;55157;51.036;17.058;2023-07-28T02:18:14;5.47;;;2.75;;
68310;SDS011;55157;51.036;17.058;2023-07-28T02:20:39;4.43;;;2.60;;
68310;SDS011;55157;51.036;17.058;2023-07-28T02:23:04;5.88;;;2.75;;
68310;SDS011;55157;51.036;17.058;2023-07-28T02:25:30;5.57;;;2.80;;
68310;SDS011;55157;51.036;17.058;2023-07-28T02:27:55;3.90;;;2.60;;
68310;SDS011;55157;51.036;17.058;2023-07-28T02:30:20;3.03;;;2.38;;
68310;SDS011;55157;51.036;17.058;2023-07-28T02:32:45;5.35;;;3.13;;
68310;SDS011;55157;51.036;17.058;2023-07-28T02:35:12;4.95;;;2.65;;
68310;SDS011;55157;51.036;17.058;2023-07-28T02:37:37;5.95;;;2.97;;
68310;SDS011;55157;51.036;17.058;2023-07-28T02:40:03;3.35;;;2.50;;
68310;SDS011;55157;51.036;17.058;2023-07-28T02:42:28;5.75;;;2.35;;
68310;SDS011;55157;51.036;17.058;2023-07-28T02:44:53;6.72;;;3.08;;
68310;SDS011;55157;51.036;17.058;2023-07-28T02:47:18;5.22;;;2.75;;
68310;SDS011;55157;51.036;17.058;2023-07-28T02:49:44;6.07;;;2.97;;
68310;SDS011;55157;51.036;17.058;2023-07-28T02:52:11;5.30;;;2.80;;
68310;SDS011;55157;51.036;17.058;2023-07-28T02:54:36;5.55;;;2.65;;
68310;SDS011;55157;51.036;17.058;2023-07-28T02:57:01;3.85;;;3.08;;
68310;SDS011;55157;51.036;17.058;2023-07-28T02:59:27;3.13;;;2.47;;
68310;SDS011;55157;51.036;17.058;2023-07-28T03:01:52;2.97;;;2.67;;
68310;SDS011;55157;51.036;17.058;2023-07-28T03:04:17;5.70;;;2.85;;
68310;SDS011;55157;51.036;17.058;2023-07-28T03:06:42;6.47;;;3.00;;
68310;SDS011;55157;51.036;17.058;2023-07-28T03:09:09;4.00;;;2.80;;
68310;SDS011;55157;51.036;17.058;2023-07-28T03:11:34;4.28;;;2.35;;
68310;SDS011;55157;51.036;17.058;2023-07-28T03:14:00;4.60;;;2.78;;
68310;SDS011;55157;51.036;17.058;2023-07-28T03:16:25;5.47;;;3.15;;
68310;SDS011;55157;51.036;17.058;2023-07-28T03:18:50;2.78;;;2.28;;
68310;SDS011;55157;51.036;17.058;2023-07-28T03:21:16;6.30;;;2.42;;
68310;SDS011;55157;51.036;17.058;2023-07-28T03:23:41;3.80;;;2.30;;
68310;SDS011;55157;51.036;17.058;2023-07-28T03:26:07;4.15;;;2.20;;
68310;SDS011;55157;51.036;17.058;2023-07-28T03:28:33;5.18;;;2.40;;
68310;SDS011;55157;51.036;17.058;2023-07-28T03:30:58;4.57;;;2.22;;
68310;SDS011;55157;51.036;17.058;2023-07-28T03:33:23;4.97;;;2.90;;
68310;SDS011;55157;51.036;17.058;2023-07-28T03:35:49;3.00;;;2.17;;
68310;SDS011;55157;51.036;17.058;2023-07-28T03:38:14;3.00;;;2.20;;
68310;SDS011;55157;51.036;17.058;2023-07-28T03:40:39;4.00;;;2.10;;
68310;SDS011;55157;51.036;17.058;2023-07-28T03:43:06;2.78;;;1.95;;
68310;SDS011;55157;51.036;17.058;2023-07-28T03:45:31;3.42;;;2.08;;
68310;SDS011;55157;51.036;17.058;2023-07-28T03:47:56;2.58;;;1.73;;
68310;SDS011;55157;51.036;17.058;2023-07-28T03:50:22;4.50;;;1.83;;
68310;SDS011;55157;51.036;17.058;2023-07-28T03:52:47;5.35;;;1.70;;
68310;SDS011;55157;51.036;17.058;2023-07-28T03:55:12;6.47;;;2.35;;
68310;SDS011;55157;51.036;17.058;2023-07-28T03:57:37;3.60;;;1.90;;
68310;SDS011;55157;51.036;17.058;2023-07-28T04:00:05;2.00;;;1.63;;
68310;SDS011;55157;51.036;17.058;2023-07-28T04:02:30;1.88;;;1.60;;
68310;SDS011;55157;51.036;17.058;2023-07-28T04:04:56;2.75;;;2.15;;
68310;SDS011;55157;51.036;17.058;2023-07-28T04:07:21;3.40;;;1.65;;
68310;SDS011;55157;51.036;17.058;2023-07-28T04:09:46;2.08;;;1.88;;
68310;SDS011;55157;51.036;17.058;2023-07-28T04:12:12;3.55;;;1.45;;
68310;SDS011;55157;51.036;17.058;2023-07-28T04:14:37;6.43;;;2.00;;
68310;SDS011;55157;51.036;17.058;2023-07-28T04:17:04;3.15;;;1.60;;
68310;SDS011;55157;51.036;17.058;2023-07-28T04:19:29;3.72;;;1.75;;
68310;SDS011;55157;51.036;17.058;2023-07-28T04:21:54;3.13;;;1.67;;
68310;SDS011;55157;51.036;17.058;2023-07-28T04:24:20;4.35;;;2.28;;
68310;SDS011;55157;51.036;17.058;2023-07-28T04:26:45;3.60;;;1.70;;
68310;SDS011;55157;51.036;17.058;2023-07-28T04:29:11;2.28;;;1.63;;
68310;SDS011;55157;51.036;17.058;2023-07-28T04:31:36;2.08;;;1.75;;
68310;SDS011;55157;51.036;17.058;2023-07-28T04:34:03;3.40;;;1.80;;
68310;SDS011;55157;51.036;17.058;2023-07-28T04:36:28;2.65;;;1.50;;
68310;SDS011;55157;51.036;17.058;2023-07-28T04:38:53;1.90;;;1.45;;
68310;SDS011;55157;51.036;17.058;2023-07-28T04:41:18;1.70;;;1.60;;
68310;SDS011;55157;51.036;17.058;2023-07-28T04:43:43;6.63;;;1.45;;
68310;SDS011;55157;51.036;17.058;2023-07-28T04:46:09;1.98;;;1.50;;
68310;SDS011;55157;51.036;17.058;2023-07-28T04:48:34;4.50;;;1.88;;
68310;SDS011;55157;51.036;17.058;2023-07-28T04:51:01;2.33;;;1.60;;
68310;SDS011;55157;51.036;17.058;2023-07-28T04:53:26;3.53;;;1.70;;
68310;SDS011;55157;51.036;17.058;2023-07-28T04:55:51;2.13;;;1.92;;
68310;SDS011;55157;51.036;17.058;2023-07-28T04:58:16;6.40;;;1.48;;
68310;SDS011;55157;51.036;17.058;2023-07-28T05:00:42;2.30;;;1.90;;
68310;SDS011;55157;51.036;17.058;2023-07-28T05:03:07;2.25;;;1.73;;
68310;SDS011;55157;51.036;17.058;2023-07-28T05:05:32;3.35;;;1.70;;
68310;SDS011;55157;51.036;17.058;2023-07-28T05:07:59;2.28;;;1.65;;
68310;SDS011;55157;51.036;17.058;2023-07-28T05:10:24;1.67;;;1.50;;
68310;SDS011;55157;51.036;17.058;2023-07-28T05:12:49;1.60;;;1.50;;
68310;SDS011;55157;51.036;17.058;2023-07-28T05:15:15;4.28;;;1.80;;
68310;SDS011;55157;51.036;17.058;2023-07-28T05:17:40;3.13;;;2.60;;
68310;SDS011;55157;51.036;17.058;2023-07-28T05:20:06;3.88;;;1.40;;
68310;SDS011;55157;51.036;17.058;2023-07-28T05:22:31;7.03;;;1.80;;
68310;SDS011;55157;51.036;17.058;2023-07-28T05:24:58;3.20;;;1.83;;
68310;SDS011;55157;51.036;17.058;2023-07-28T05:27:23;2.95;;;1.48;;
68310;SDS011;55157;51.036;17.058;2023-07-28T05:29:48;1.80;;;1.50;;
68310;SDS011;55157;51.036;17.058;2023-07-28T05:32:14;2.67;;;1.90;;
68310;SDS011;55157;51.036;17.058;2023-07-28T05:34:41;2.90;;;1.60;;
68310;SDS011;55157;51.036;17.058;2023-07-28T05:37:06;2.35;;;1.63;;
68310;SDS011;55157;51.036;17.058;2023-07-28T05:39:31;2.35;;;1.92;;
68310;SDS011;55157;51.036;17.058;2023-07-28T05:41:58;1.90;;;1.70;;
68310;SDS011;55157;51.036;17.058;2023-07-28T05:44:23;3.05;;;1.77;;
68310;SDS011;55157;51.036;17.058;2023-07-28T05:46:49;3.35;;;1.88;;
68310;SDS011;55157;51.036;17.058;2023-07-28T05:49:14;2.53;;;1.88;;
68310;SDS011;55157;51.036;17.058;2023-07-28T05:51:39;4.50;;;2.13;;
68310;SDS011;55157;51.036;17.058;2023-07-28T05:54:04;2.70;;;1.88;;
68310;SDS011;55157;51.036;17.058;2023-07-28T05:56:29;3.08;;;1.90;;
68310;SDS011;55157;51.036;17.058;2023-07-28T05:58:56;2.63;;;1.77;;
68310;SDS011;55157;51.036;17.058;2023-07-28T06:01:22;2.47;;;1.88;;
68310;SDS011;55157;51.036;17.058;2023-07-28T06:03:47;3.88;;;2.13;;
68310;SDS011;55157;51.036;17.058;2023-07-28T06:06:12;3.53;;;1.77;;
68310;SDS011;55157;51.036;17.058;2023-07-28T06:08:37;3.10;;;1.75;;
68310;SDS011;55157;51.036;17.058;2023-07-28T06:11:03;2.20;;;1.70;;
68310;SDS011;55157;51.036;17.058;2023-07-28T06:13:28;5.10;;;1.88;;
68310;SDS011;55157;51.036;17.058;2023-07-28T06:15:55;2.40;;;1.50;;
68310;SDS011;55157;51.036;17.058;2023-07-28T06:18:20;4.18;;;1.30;;
68310;SDS011;55157;51.036;17.058;2023-07-28T06:20:45;3.25;;;1.35;;
68310;SDS011;55157;51.036;17.058;2023-07-28T06:23:10;1.55;;;1.23;;
68310;SDS011;55157;51.036;17.058;2023-07-28T06:25:36;2.53;;;1.40;;
68310;SDS011;55157;51.036;17.058;2023-07-28T06:28:01;1.98;;;1.00;;
68310;SDS011;55157;51.036;17.058;2023-07-28T06:30:26;1.50;;;1.00;;
68310;SDS011;55157;51.036;17.058;2023-07-28T06:32:53;0.90;;;0.80;;
68310;SDS011;55157;51.036;17.058;2023-07-28T06:35:18;3.22;;;0.90;;
68310;SDS011;55157;51.036;17.058;2023-07-28T06:37:43;1.58;;;0.90;;
68310;SDS011;55157;51.036;17.058;2023-07-28T06:40:09;0.80;;;0.70;;
68310;SDS011;55157;51.036;17.058;2023-07-28T06:42:34;1.08;;;0.85;;
68310;SDS011;55157;51.036;17.058;2023-07-28T06:45:00;1.00;;;0.65;;
68310;SDS011;55157;51.036;17.058;2023-07-28T06:47:25;3.88;;;0.80;;
68310;SDS011;55157;51.036;17.058;2023-07-28T06:49:52;1.25;;;1.08;;
68310;SDS011;55157;51.036;17.058;2023-07-28T06:52:17;1.23;;;1.02;;
68310;SDS011;55157;51.036;17.058;2023-07-28T06:54:43;2.80;;;0.90;;
68310;SDS011;55157;51.036;17.058;2023-07-28T06:57:08;1.35;;;0.90;;
68310;SDS011;55157;51.036;17.058;2023-07-28T06:59:33;0.52;;;0.50;;
68310;SDS011;55157;51.036;17.058;2023-07-28T07:01:58;1.50;;;0.60;;
68310;SDS011;55157;51.036;17.058;2023-07-28T07:04:23;0.60;;;0.60;;
68310;SDS011;55157;51.036;17.058;2023-07-28T07:06:50;0.82;;;0.60;;
68310;SDS011;55157;51.036;17.058;2023-07-28T07:09:15;3.08;;;1.00;;
68310;SDS011;55157;51.036;17.058;2023-07-28T07:11:41;4.03;;;0.60;;
68310;SDS011;55157;51.036;17.058;2023-07-28T07:14:06;0.70;;;0.60;;
68310;SDS011;55157;51.036;17.058;2023-07-28T07:16:31;1.95;;;0.60;;
68310;SDS011;55157;51.036;17.058;2023-07-28T07:18:56;3.25;;;0.75;;
68310;SDS011;55157;51.036;17.058;2023-07-28T07:21:22;1.75;;;0.70;;
68310;SDS011;55157;51.036;17.058;2023-07-28T07:23:48;2.45;;;0.70;;
68310;SDS011;55157;51.036;17.058;2023-07-28T07:26:14;0.98;;;0.60;;
68310;SDS011;55157;51.036;17.058;2023-07-28T07:28:39;2.63;;;0.52;;
68310;SDS011;55157;51.036;17.058;2023-07-28T07:31:04;1.77;;;0.60;;
68310;SDS011;55157;51.036;17.058;2023-07-28T07:33:36;4.78;;;0.68;;
68310;SDS011;55157;51.036;17.058;2023-07-28T07:36:01;2.72;;;0.60;;
68310;SDS011;55157;51.036;17.058;2023-07-28T07:38:26;0.82;;;0.57;;
68310;SDS011;55157;51.036;17.058;2023-07-28T07:40:53;1.15;;;0.45;;
68310;SDS011;55157;51.036;17.058;2023-07-28T07:43:18;0.70;;;0.68;;
68310;SDS011;55157;51.036;17.058;2023-07-28T07:45:43;1.02;;;0.50;;
68310;SDS011;55157;51.036;17.058;2023-07-28T07:48:09;0.60;;;0.50;;
68310;SDS011;55157;51.036;17.058;2023-07-28T07:50:34;1.75;;;0.40;;
68310;SDS011;55157;51.036;17.058;2023-07-28T07:52:59;0.50;;;0.50;;
68310;SDS011;55157;51.036;17.058;2023-07-28T07:55:24;0.73;;;0.50;;
68310;SDS011;55157;51.036;17.058;2023-07-28T07:57:51;1.50;;;1.10;;
68310;SDS011;55157;51.036;17.058;2023-07-28T08:00:17;1.23;;;0.77;;
68310;SDS011;55157;51.036;17.058;2023-07-28T08:02:42;2.17;;;0.90;;
68310;SDS011;55157;51.036;17.058;2023-07-28T08:05:07;1.55;;;0.80;;
68310;SDS011;55157;51.036;17.058;2023-07-28T08:07:33;6.10;;;0.57;;
68310;SDS011;55157;51.036;17.058;2023-07-28T08:09:58;2.35;;;0.75;;
68310;SDS011;55157;51.036;17.058;2023-07-28T08:12:23;4.78;;;0.68;;
68310;SDS011;55157;51.036;17.058;2023-07-28T08:14:50;2.22;;;0.40;;
68310;SDS011;55157;51.036;17.058;2023-07-28T08:17:15;0.52;;;0.40;;
68310;SDS011;55157;51.036;17.058;2023-07-28T08:19:40;2.60;;;0.80;;
68310;SDS011;55157;51.036;17.058;2023-07-28T08:22:05;3.25;;;0.57;;
68310;SDS011;55157;51.036;17.058;2023-07-28T08:24:31;7.97;;;0.90;;
68310;SDS011;55157;51.036;17.058;2023-07-28T08:26:56;1.95;;;0.60;;
68310;SDS011;55157;51.036;17.058;2023-07-28T08:29:21;0.77;;;0.60;;
68310;SDS011;55157;51.036;17.058;2023-07-28T08:31:49;0.50;;;0.50;;
68310;SDS011;55157;51.036;17.058;2023-07-28T08:34:14;3.03;;;0.40;;
68310;SDS011;55157;51.036;17.058;2023-07-28T08:36:39;1.50;;;0.80;;
68310;SDS011;55157;51.036;17.058;2023-07-28T08:39:04;5.45;;;1.05;;
68310;SDS011;55157;51.036;17.058;2023-07-28T08:41:29;0.63;;;0.50;;
68310;SDS011;55157;51.036;17.058;2023-07-28T08:43:55;0.93;;;0.60;;
68310;SDS011;55157;51.036;17.058;2023-07-28T08:46:20;2.63;;;0.70;;
68310;SDS011;55157;51.036;17.058;2023-07-28T08:48:47;0.95;;;0.68;;
68310;SDS011;55157;51.036;17.058;2023-07-28T08:51:12;1.25;;;1.08;;
68310;SDS011;55157;51.036;17.058;2023-07-28T08:53:37;1.05;;;0.80;;
68310;SDS011;55157;51.036;17.058;2023-07-28T08:56:03;2.60;;;0.90;;
68310;SDS011;55157;51.036;17.058;2023-07-28T08:58:29;4.32;;;1.20;;
68310;SDS011;55157;51.036;17.058;2023-07-28T09:00:54;1.10;;;0.80;;
68310;SDS011;55157;51.036;17.058;2023-07-28T09:03:20;3.75;;;0.82;;
68310;SDS011;55157;51.036;17.058;2023-07-28T09:05:46;2.38;;;0.60;;
68310;SDS011;55157;51.036;17.058;2023-07-28T09:08:12;13.27;;;1.10;;
68310;SDS011;55157;51.036;17.058;2023-07-28T09:10:40;10.30;;;1.55;;
68310;SDS011;55157;51.036;17.058;2023-07-28T09:13:08;6.78;;;0.98;;
68310;SDS011;55157;51.036;17.058;2023-07-28T09:15:34;1.98;;;0.70;;
68310;SDS011;55157;51.036;17.058;2023-07-28T09:18:00;3.08;;;0.80;;
68310;SDS011;55157;51.036;17.058;2023-07-28T09:20:25;1.75;;;0.85;;
68310;SDS011;55157;51.036;17.058;2023-07-28T09:22:59;0.52;;;0.52;;
68310;SDS011;55157;51.036;17.058;2023-07-28T09:25:24;0.80;;;0.65;;
68310;SDS011;55157;51.036;17.058;2023-07-28T09:27:52;1.73;;;0.70;;
68310;SDS011;55157;51.036;17.058;2023-07-28T09:30:18;5.40;;;0.60;;
68310;SDS011;55157;51.036;17.058;2023-07-28T09:32:46;3.38;;;1.00;;
68310;SDS011;55157;51.036;17.058;2023-07-28T09:35:12;1.73;;;0.88;;
68310;SDS011;55157;51.036;17.058;2023-07-28T09:37:38;1.63;;;0.60;;
68310;SDS011;55157;51.036;17.058;2023-07-28T09:40:08;1.13;;;0.75;;
68310;SDS011;55157;51.036;17.058;2023-07-28T09:42:34;1.55;;;0.70;;
68310;SDS011;55157;51.036;17.058;2023-07-28T09:44:59;5.32;;;0.60;;
68310;SDS011;55157;51.036;17.058;2023-07-28T09:47:24;3.53;;;0.43;;
68310;SDS011;55157;51.036;17.058;2023-07-28T09:49:51;3.90;;;0.88;;
68310;SDS011;55157;51.036;17.058;2023-07-28T09:52:18;1.85;;;0.70;;
68310;SDS011;55157;51.036;17.058;2023-07-28T09:54:44;12.00;;;2.22;;
68310;SDS011;55157;51.036;17.058;2023-07-28T09:57:13;2.53;;;0.90;;
68310;SDS011;55157;51.036;17.058;2023-07-28T09:59:41;4.30;;;0.95;;
68310;SDS011;55157;51.036;17.058;2023-07-28T10:02:07;4.75;;;1.35;;
68310;SDS011;55157;51.036;17.058;2023-07-28T10:04:33;1.75;;;1.00;;
68310;SDS011;55157;51.036;17.058;2023-07-28T10:06:58;3.30;;;0.70;;
68310;SDS011;55157;51.036;17.058;2023-07-28T10:09:23;2.22;;;0.73;;
68310;SDS011;55157;51.036;17.058;2023-07-28T10:11:49;2.05;;;0.80;;
68310;SDS011;55157;51.036;17.058;2023-07-28T10:14:26;3.33;;;0.70;;
68310;SDS011;55157;51.036;17.058;2023-07-28T10:16:51;2.45;;;0.90;;
68310;SDS011;55157;51.036;17.058;2023-07-28T10:19:19;2.55;;;1.10;;
68310;SDS011;55157;51.036;17.058;2023-07-28T10:21:44;3.17;;;1.13;;
68310;SDS011;55157;51.036;17.058;2023-07-28T10:24:10;6.00;;;0.60;;
68310;SDS011;55157;51.036;17.058;2023-07-28T10:26:36;7.43;;;1.98;;
68310;SDS011;55157;51.036;17.058;2023-07-28T10:29:09;1.67;;;1.10;;
68310;SDS011;55157;51.036;17.058;2023-07-28T10:31:36;5.57;;;1.20;;
68310;SDS011;55157;51.036;17.058;2023-07-28T10:34:01;3.45;;;0.90;;
68310;SDS011;55157;51.036;17.058;2023-07-28T10:36:32;1.17;;;0.80;;
68310;SDS011;55157;51.036;17.058;2023-07-28T10:38:59;1.85;;;0.98;;
68310;SDS011;55157;51.036;17.058;2023-07-28T10:41:24;2.42;;;0.73;;
68310;SDS011;55157;51.036;17.058;2023-07-28T10:43:49;2.03;;;0.80;;
68310;SDS011;55157;51.036;17.058;2023-07-28T10:46:16;1.33;;;0.70;;
68310;SDS011;55157;51.036;17.058;2023-07-28T10:48:43;4.47;;;0.82;;
68310;SDS011;55157;51.036;17.058;2023-07-28T10:51:09;2.88;;;0.70;;
68310;SDS011;55157;51.036;17.058;2023-07-28T10:53:34;1.95;;;0.63;;
68310;SDS011;55157;51.036;17.058;2023-07-28T10:56:00;19.27;;;2.67;;
68310;SDS011;55157;51.036;17.058;2023-07-28T10:58:25;1.65;;;0.70;;
68310;SDS011;55157;51.036;17.058;2023-07-28T11:00:50;4.10;;;0.90;;
68310;SDS011;55157;51.036;17.058;2023-07-28T11:03:16;4.40;;;0.70;;
68310;SDS011;55157;51.036;17.058;2023-07-28T11:05:42;3.67;;;0.67;;
68310;SDS011;55157;51.036;17.058;2023-07-28T11:08:08;0.98;;;0.63;;
68310;SDS011;55157;51.036;17.058;2023-07-28T11:10:33;0.70;;;0.60;;
68310;SDS011;55157;51.036;17.058;2023-07-28T11:13:00;0.50;;;0.50;;
68310;SDS011;55157;51.036;17.058;2023-07-28T11:15:25;1.05;;;0.50;;
68310;SDS011;55157;51.036;17.058;2023-07-28T11:17:51;0.80;;;0.65;;
68310;SDS011;55157;51.036;17.058;2023-07-28T11:20:17;1.63;;;0.70;;
68310;SDS011;55157;51.036;17.058;2023-07-28T11:22:44;0.57;;;0.50;;
68310;SDS011;55157;51.036;17.058;2023-07-28T11:25:09;3.42;;;0.88;;
68310;SDS011;55157;51.036;17.058;2023-07-28T11:27:34;4.00;;;0.70;;
68310;SDS011;55157;51.036;17.058;2023-07-28T11:29:59;4.38;;;0.75;;
68310;SDS011;55157;51.036;17.058;2023-07-28T11:32:25;0.80;;;0.80;;
68310;SDS011;55157;51.036;17.058;2023-07-28T11:34:51;3.05;;;0.70;;
68310;SDS011;55157;51.036;17.058;2023-07-28T11:37:16;1.23;;;0.87;;
68310;SDS011;55157;51.036;17.058;2023-07-28T11:39:43;2.78;;;0.65;;
68310;SDS011;55157;51.036;17.058;2023-07-28T11:42:08;1.67;;;0.80;;
68310;SDS011;55157;51.036;17.058;2023-07-28T11:44:34;1.88;;;0.82;;
68310;SDS011;55157;51.036;17.058;2023-07-28T11:46:59;0.88;;;0.70;;
68310;SDS011;55157;51.036;17.058;2023-07-28T11:49:24;2.07;;;1.03;;
68310;SDS011;55157;51.036;17.058;2023-07-28T11:51:50;3.00;;;1.03;;
68310;SDS011;55157;51.036;17.058;2023-07-28T11:54:16;2.63;;;0.75;;
68310;SDS011;55157;51.036;17.058;2023-07-28T11:56:44;1.23;;;0.70;;
68310;SDS011;55157;51.036;17.058;2023-07-28T11:59:09;1.50;;;0.68;;
68310;SDS011;55157;51.036;17.058;2023-07-28T12:01:34;2.35;;;1.13;;
68310;SDS011;55157;51.036;17.058;2023-07-28T12:09:20;1.30;;;0.60;;
68310;SDS011;55157;51.036;17.058;2023-07-28T12:11:47;21.43;;;2.30;;
68310;SDS011;55157;51.036;17.058;2023-07-28T12:14:12;1.73;;;0.75;;
68310;SDS011;55157;51.036;17.058;2023-07-28T12:16:40;1.30;;;0.60;;
68310;SDS011;55157;51.036;17.058;2023-07-28T12:19:06;2.20;;;0.85;;
68310;SDS011;55157;51.036;17.058;2023-07-28T12:21:31;4.57;;;0.70;;
68310;SDS011;55157;51.036;17.058;2023-07-28T12:23:57;7.72;;;1.00;;
68310;SDS011;55157;51.036;17.058;2023-07-28T12:26:22;6.47;;;1.00;;
68310;SDS011;55157;51.036;17.058;2023-07-28T12:28:49;11.30;;;0.87;;
68310;SDS011;55157;51.036;17.058;2023-07-28T12:31:14;3.50;;;0.73;;
68310;SDS011;55157;51.036;17.058;2023-07-28T12:33:39;3.20;;;1.02;;
68310;SDS011;55157;51.036;17.058;2023-07-28T12:36:05;7.27;;;0.63;;
68310;SDS011;55157;51.036;17.058;2023-07-28T12:38:30;2.13;;;0.50;;
68310;SDS011;55157;51.036;17.058;2023-07-28T12:40:55;2.53;;;0.60;;
68310;SDS011;55157;51.036;17.058;2023-07-28T12:43:20;1.97;;;0.60;;
68310;SDS011;55157;51.036;17.058;2023-07-28T12:45:47;4.77;;;0.70;;
68310;SDS011;55157;51.036;17.058;2023-07-28T12:48:12;0.32;;;0.32;;
68310;SDS011;55157;51.036;17.058;2023-07-28T12:50:37;4.37;;;0.73;;
68310;SDS011;55157;51.036;17.058;2023-07-28T12:53:03;1.13;;;0.57;;
68310;SDS011;55157;51.036;17.058;2023-07-28T12:55:28;6.57;;;1.00;;
68310;SDS011;55157;51.036;17.058;2023-07-28T12:57:53;4.10;;;0.63;;
68310;SDS011;55157;51.036;17.058;2023-07-28T13:00:19;2.20;;;0.55;;
68310;SDS011;55157;51.036;17.058;2023-07-28T13:02:45;2.90;;;1.40;;
68310;SDS011;55157;51.036;17.058;2023-07-28T13:05:11;3.40;;;1.85;;
68310;SDS011;55157;51.036;17.058;2023-07-28T13:07:37;1.55;;;0.70;;
68310;SDS011;55157;51.036;17.058;2023-07-28T13:10:02;7.75;;;0.95;;
68310;SDS011;55157;51.036;17.058;2023-07-28T13:12:28;5.10;;;0.80;;
68310;SDS011;55157;51.036;17.058;2023-07-28T13:14:53;11.13;;;0.97;;
68310;SDS011;55157;51.036;17.058;2023-07-28T13:17:18;2.07;;;0.70;;
68310;SDS011;55157;51.036;17.058;2023-07-28T13:19:45;2.80;;;0.80;;
68310;SDS011;55157;51.036;17.058;2023-07-28T13:22:10;4.40;;;0.50;;
68310;SDS011;55157;51.036;17.058;2023-07-28T13:24:36;3.90;;;0.60;;
68310;SDS011;55157;51.036;17.058;2023-07-28T13:27:01;13.23;;;1.43;;
68310;SDS011;55157;51.036;17.058;2023-07-28T13:29:26;2.40;;;0.70;;
68310;SDS011;55157;51.036;17.058;2023-07-28T13:31:56;4.67;;;1.60;;
68310;SDS011;55157;51.036;17.058;2023-07-28T13:34:21;2.05;;;0.60;;
68310;SDS011;55157;51.036;17.058;2023-07-28T13:36:48;2.27;;;0.50;;
68310;SDS011;55157;51.036;17.058;2023-07-28T13:39:13;1.35;;;0.70;;
68310;SDS011;55157;51.036;17.058;2023-07-28T13:41:39;3.10;;;0.90;;
68310;SDS011;55157;51.036;17.058;2023-07-28T13:44:04;3.53;;;0.70;;
68310;SDS011;55157;51.036;17.058;2023-07-28T13:46:29;0.95;;;0.50;;
68310;SDS011;55157;51.036;17.058;2023-07-28T13:48:55;4.63;;;1.00;;
68310;SDS011;55157;51.036;17.058;2023-07-28T13:51:20;2.53;;;1.00;;
68310;SDS011;55157;51.036;17.058;2023-07-28T13:53:47;1.70;;;0.50;;
68310;SDS011;55157;51.036;17.058;2023-07-28T13:56:12;1.65;;;0.65;;
68310;SDS011;55157;51.036;17.058;2023-07-28T13:58:37;11.30;;;0.73;;
68310;SDS011;55157;51.036;17.058;2023-07-28T14:01:03;7.20;;;0.53;;
68310;SDS011;55157;51.036;17.058;2023-07-28T14:03:28;6.00;;;0.60;;
68310;SDS011;55157;51.036;17.058;2023-07-28T14:05:53;2.53;;;0.60;;
68310;SDS011;55157;51.036;17.058;2023-07-28T14:08:18;2.80;;;0.60;;
68310;SDS011;55157;51.036;17.058;2023-07-28T14:10:45;0.97;;;0.43;;
68310;SDS011;55157;51.036;17.058;2023-07-28T14:13:11;1.58;;;0.70;;
68310;SDS011;55157;51.036;17.058;2023-07-28T14:15:36;4.10;;;0.60;;
68310;SDS011;55157;51.036;17.058;2023-07-28T14:18:01;4.40;;;1.30;;
68310;SDS011;55157;51.036;17.058;2023-07-28T14:20:26;1.05;;;0.60;;
68310;SDS011;55157;51.036;17.058;2023-07-28T14:22:52;1.30;;;0.50;;
68310;SDS011;55157;51.036;17.058;2023-07-28T14:25:17;3.73;;;0.40;;
68310;SDS011;55157;51.036;17.058;2023-07-28T14:27:44;2.60;;;0.60;;
68310;SDS011;55157;51.036;17.058;2023-07-28T14:30:09;2.90;;;0.50;;